Terminal Aerodrome Forecast
Issued by NWS Sterling, VA

Current Version | Previous Version | Text Only | Print | Product List | Glossary Off
Versions: 1 2 3 4 5 6 7 8 9 10 11 12 13 14 15 16 17 18 19 20 21 22 23

000
FTUS41 KLWX 310500
TAFDCA
TAF
KDCA 310529Z 3106/0106 31013G23KT P6SM FEW250
     FM311900 30011G17KT P6SM FEW250
     FM312300 32007KT P6SM FEW250
     FM010300 VRB03KT P6SM SCT250=

USA.gov is the U.S. government's official web portal to all federal, state and local government web resources and services.